Time;durP1;ratioP1;P1;durP2;ratioP2;P2;SDS_P1;SDS_P2;PMS_P1;PMS_P2;Temp;Humidity;BMP_temperature;BMP_pressure;BME280_temperature;BME280_humidity;BME280_pressure;Samples;Min_cycle;Max_cycle;Signal;HPM_P1;HPM_P2
2022/08/08 00:00:29;;;;;;;6.90;3.97;;;;;;;;;;5111696;27;20384;-62
2022/08/08 00:03:13;;;;;;;6.22;3.78;;;;;;;;;;5110863;28;20020;-62
2022/08/08 00:05:45;;;;;;;7.32;3.90;;;;;;;;;;5111550;28;20383;-63
2022/08/08 00:08:17;;;;;;;5.53;3.37;;;;;;;;;;5111831;28;20360;-62
2022/08/08 00:11:20;;;;;;;5.32;3.58;;;;;;;;;;5112197;27;20769;-62
2022/08/08 00:13:53;;;;;;;7.25;3.95;;;;;;;;;;5111307;28;20035;-62
2022/08/08 00:17:33;;;;;;;6.32;3.70;;;;;;;;;;5070570;28;20473;-62
2022/08/08 00:20:05;;;;;;;8.00;4.10;;;;;;;;;;5069520;28;20024;-63
2022/08/08 00:22:46;;;;;;;8.73;4.32;;;;;;;;;;5069050;28;20051;-62
2022/08/08 00:25:47;;;;;;;6.85;3.80;;;;;;;;;;5070852;28;20384;-62
2022/08/08 00:28:15;;;;;;;6.80;3.75;;;;;;;;;;5071140;28;20036;-63
2022/08/08 00:30:45;;;;;;;6.65;3.88;;;;;;;;;;5069068;28;20516;-63
2022/08/08 00:33:15;;;;;;;7.43;3.88;;;;;;;;;;5070648;28;20532;-63
2022/08/08 00:35:41;;;;;;;6.28;3.63;;;;;;;;;;5070570;28;20103;-64
2022/08/08 00:38:08;;;;;;;6.10;3.90;;;;;;;;;;5068926;28;20025;-63
2022/08/08 00:40:52;;;;;;;6.47;3.80;;;;;;;;;;5070505;28;20035;-63
2022/08/08 00:43:21;;;;;;;6.32;3.67;;;;;;;;;;5070391;28;20024;-63
2022/08/08 00:46:06;;;;;;;7.20;4.35;;;;;;;;;;5070018;28;20432;-63
2022/08/08 00:48:32;;;;;;;6.40;4.22;;;;;;;;;;5069066;28;20585;-62
2022/08/08 00:52:09;;;;;;;5.43;3.60;;;;;;;;;;5111338;27;20458;-63
2022/08/08 00:58:48;;;;;;;8.00;4.18;;;;;;;;;;5131550;27;20122;-63
2022/08/08 01:01:18;;;;;;;6.15;3.85;;;;;;;;;;5093128;28;20533;-62
2022/08/08 01:04:02;;;;;;;6.25;3.78;;;;;;;;;;5111258;28;20028;-62
2022/08/08 01:06:28;;;;;;;5.90;3.78;;;;;;;;;;5092617;28;20036;-62
2022/08/08 01:08:57;;;;;;;7.40;3.83;;;;;;;;;;5111154;28;20476;-63
2022/08/08 01:11:57;;;;;;;6.38;4.10;;;;;;;;;;5111118;28;20031;-63
2022/08/08 01:14:26;;;;;;;6.43;3.70;;;;;;;;;;5111091;28;20421;-63
2022/08/08 01:17:07;;;;;;;7.97;4.15;;;;;;;;;;5110947;28;20034;-63
2022/08/08 01:21:33;;;;;;;6.30;3.80;;;;;;;;;;5111854;27;20393;-61
2022/08/08 01:24:14;;;;;;;6.65;4.07;;;;;;;;;;5110068;28;20024;-62
2022/08/08 01:28:59;;;;;;;8.52;3.92;;;;;;;;;;5111362;27;20935;-62
2022/08/08 01:31:44;;;;;;;8.63;4.55;;;;;;;;;;5127150;28;20429;-63
2022/08/08 01:34:16;;;;;;;8.30;4.68;;;;;;;;;;5110850;28;20028;-63
2022/08/08 01:39:06;;;;;;;6.18;3.72;;;;;;;;;;5111989;27;20438;-62
2022/08/08 01:41:35;;;;;;;6.63;3.80;;;;;;;;;;5111060;28;20028;-62
2022/08/08 01:44:08;;;;;;;7.82;4.30;;;;;;;;;;5111296;28;20024;-62
2022/08/08 01:47:03;;;;;;;5.53;3.50;;;;;;;;;;5111165;28;20085;-62
2022/08/08 01:50:25;;;;;;;9.13;4.65;;;;;;;;;;5111953;27;20760;-63
2022/08/08 01:52:58;;;;;;;7.28;4.10;;;;;;;;;;5111427;28;20024;-63
2022/08/08 01:55:27;;;;;;;9.90;4.57;;;;;;;;;;5110981;28;20028;-63
2022/08/08 01:59:54;;;;;;;7.90;4.00;;;;;;;;;;5111675;27;20396;-63
2022/08/08 02:02:38;;;;;;;6.97;4.10;;;;;;;;;;5111034;28;20472;-63
2022/08/08 02:05:23;;;;;;;7.40;4.43;;;;;;;;;;5111295;28;20031;-63
2022/08/08 02:08:11;;;;;;;5.85;3.72;;;;;;;;;;5111304;28;20052;-63
2022/08/08 02:10:44;;;;;;;6.57;3.97;;;;;;;;;;5109842;28;20024;-63
2022/08/08 02:13:13;;;;;;;8.38;5.13;;;;;;;;;;5111260;28;20020;-63
2022/08/08 02:17:28;;;;;;;6.63;4.35;;;;;;;;;;5111721;27;20388;-62
2022/08/08 02:19:54;;;;;;;7.75;4.38;;;;;;;;;;5111358;28;20032;-62
2022/08/08 02:23:43;;;;;;;8.15;3.88;;;;;;;;;;5111112;27;20473;-62
2022/08/08 02:26:14;;;;;;;6.20;3.65;;;;;;;;;;5111336;28;20069;-62
2022/08/08 02:33:03;;;;;;;6.07;3.85;;;;;;;;;;5112063;27;20392;-63
2022/08/08 02:35:29;;;;;;;7.57;4.90;;;;;;;;;;5111685;28;20027;-62
2022/08/08 02:39:20;;;;;;;7.78;4.63;;;;;;;;;;5112007;27;20473;-62
2022/08/08 02:42:03;;;;;;;9.00;5.07;;;;;;;;;;5112084;27;20422;-63
2022/08/08 02:46:57;;;;;;;7.90;4.70;;;;;;;;;;5111472;27;20400;-62
2022/08/08 02:49:29;;;;;;;6.72;4.30;;;;;;;;;;5110231;28;20035;-62
2022/08/08 02:56:45;;;;;;;8.15;5.32;;;;;;;;;;5112101;27;20485;-62
2022/08/08 02:59:12;;;;;;;7.93;5.07;;;;;;;;;;5126758;28;20407;-63
2022/08/08 03:01:57;;;;;;;9.35;5.35;;;;;;;;;;5111242;28;20494;-62
2022/08/08 03:04:48;;;;;;;7.90;5.07;;;;;;;;;;5126631;28;20032;-63
2022/08/08 03:09:03;;;;;;;8.43;5.35;;;;;;;;;;5112122;27;20401;-62
2022/08/08 03:13:16;;;;;;;7.57;4.93;;;;;;;;;;5090911;27;20418;-62
2022/08/08 03:16:45;;;;;;;6.88;4.20;;;;;;;;;;5111377;27;20416;-61
2022/08/08 03:21:44;;;;;;;7.97;4.75;;;;;;;;;;5111820;27;20416;-62
2022/08/08 03:24:11;;;;;;;7.32;5.07;;;;;;;;;;5111305;28;20032;-63
2022/08/08 03:26:39;;;;;;;7.78;4.57;;;;;;;;;;5110888;28;20023;-62
2022/08/08 03:30:14;;;;;;;9.40;5.28;;;;;;;;;;5111957;27;20881;-62
2022/08/08 03:36:55;;;;;;;8.20;4.93;;;;;;;;;;5111763;27;20423;-62
2022/08/08 03:39:21;;;;;;;12.07;4.90;;;;;;;;;;5111278;28;20028;-62
2022/08/08 03:43:18;;;;;;;7.90;5.60;;;;;;;;;;5111746;27;20388;-61
2022/08/08 03:45:45;;;;;;;10.75;5.18;;;;;;;;;;5110030;28;20027;-62
2022/08/08 03:50:16;;;;;;;9.35;5.13;;;;;;;;;;5111336;27;20477;-62
2022/08/08 03:54:04;;;;;;;7.57;4.65;;;;;;;;;;5111298;27;20503;-62
2022/08/08 03:56:32;;;;;;;12.70;5.07;;;;;;;;;;5110033;28;20060;-62
2022/08/08 03:58:58;;;;;;;10.90;5.50;;;;;;;;;;5109955;28;20498;-62
2022/08/08 04:01:38;;;;;;;9.82;4.63;;;;;;;;;;5111211;27;20416;-62
2022/08/08 04:04:04;;;;;;;7.32;4.13;;;;;;;;;;5111535;28;20035;-62
2022/08/08 04:06:31;;;;;;;8.35;5.13;;;;;;;;;;5111211;28;20023;-63
2022/08/08 04:09:23;;;;;;;9.63;4.60;;;;;;;;;;5111103;27;20412;-64
2022/08/08 04:11:49;;;;;;;7.28;4.95;;;;;;;;;;5127175;28;20035;-64
2022/08/08 04:14:16;;;;;;;7.70;4.80;;;;;;;;;;5111330;28;20103;-64
2022/08/08 04:16:42;;;;;;;11.07;5.68;;;;;;;;;;5110928;28;20449;-63
2022/08/08 04:19:08;;;;;;;8.20;5.13;;;;;;;;;;5111140;28;20043;-63
2022/08/08 04:21:34;;;;;;;10.60;5.82;;;;;;;;;;5126511;28;20364;-63
2022/08/08 04:24:19;;;;;;;9.02;6.07;;;;;;;;;;5086899;28;20752;-64
2022/08/08 04:29:06;;;;;;;8.38;5.22;;;;;;;;;;5111058;27;20393;-64
2022/08/08 04:31:32;;;;;;;9.48;5.70;;;;;;;;;;5110096;28;20035;-63
2022/08/08 04:33:58;;;;;;;9.70;4.97;;;;;;;;;;5111374;28;20433;-63
2022/08/08 04:36:25;;;;;;;7.75;5.20;;;;;;;;;;5110829;28;20031;-63
2022/08/08 04:38:51;;;;;;;9.32;5.20;;;;;;;;;;5111242;28;20054;-63
2022/08/08 04:41:17;;;;;;;9.18;5.35;;;;;;;;;;5111140;28;20093;-63
2022/08/08 04:44:53;;;;;;;11.18;6.00;;;;;;;;;;5110965;27;20389;-62
2022/08/08 04:47:19;;;;;;;7.25;4.82;;;;;;;;;;5111330;28;20059;-63
2022/08/08 04:49:45;;;;;;;8.52;5.18;;;;;;;;;;5111112;28;20027;-62
2022/08/08 04:52:46;;;;;;;8.60;4.72;;;;;;;;;;5111557;27;20438;-63
2022/08/08 04:56:56;;;;;;;7.78;5.15;;;;;;;;;;5110988;27;20780;-63
2022/08/08 05:01:33;;;;;;;8.25;5.18;;;;;;;;;;5111673;27;20396;-62
2022/08/08 05:06:01;;;;;;;7.28;4.63;;;;;;;;;;5111562;27;20550;-64
2022/08/08 05:08:27;;;;;;;7.50;4.60;;;;;;;;;;5111321;28;20066;-63
2022/08/08 05:10:53;;;;;;;6.82;4.43;;;;;;;;;;5110939;28;20024;-63
2022/08/08 05:13:20;;;;;;;7.20;4.18;;;;;;;;;;5111259;28;20024;-63
2022/08/08 05:15:46;;;;;;;7.28;4.47;;;;;;;;;;5111381;28;20016;-63
2022/08/08 05:18:12;;;;;;;7.28;4.40;;;;;;;;;;5110747;28;20028;-63
2022/08/08 05:20:38;;;;;;;6.25;4.15;;;;;;;;;;5111131;28;20023;-63
2022/08/08 05:23:34;;;;;;;6.85;4.53;;;;;;;;;;5111760;27;20385;-62
2022/08/08 05:28:03;;;;;;;7.82;4.60;;;;;;;;;;5111582;27;20401;-63
2022/08/08 05:30:29;;;;;;;7.35;4.60;;;;;;;;;;5111192;28;20020;-63
2022/08/08 05:32:55;;;;;;;8.13;4.25;;;;;;;;;;5110876;28;20024;-63
2022/08/08 05:39:33;;;;;;;7.78;4.30;;;;;;;;;;5111421;27;20400;-62
2022/08/08 05:42:00;;;;;;;8.82;4.93;;;;;;;;;;5111299;28;20028;-62
2022/08/08 05:46:33;;;;;;;7.85;5.07;;;;;;;;;;5111077;27;20116;-63
2022/08/08 05:49:00;;;;;;;6.93;4.40;;;;;;;;;;5111484;28;20028;-63
2022/08/08 05:51:27;;;;;;;7.47;4.43;;;;;;;;;;5111222;28;20020;-62
2022/08/08 05:54:58;;;;;;;8.35;4.63;;;;;;;;;;5111036;27;20480;-62
2022/08/08 05:57:27;;;;;;;7.05;4.95;;;;;;;;;;5111278;28;20107;-63
2022/08/08 05:59:55;;;;;;;6.63;4.45;;;;;;;;;;5108623;28;20020;-63
2022/08/08 06:03:46;;;;;;;7.53;5.28;;;;;;;;;;5110435;27;20988;-62
2022/08/08 06:06:13;;;;;;;7.57;4.63;;;;;;;;;;5111127;28;20492;-63
2022/08/08 06:08:52;;;;;;;8.30;4.80;;;;;;;;;;5110680;28;20492;-63
2022/08/08 06:11:18;;;;;;;7.80;4.53;;;;;;;;;;5111134;28;20024;-63
2022/08/08 06:13:48;;;;;;;8.70;4.80;;;;;;;;;;5110837;28;20032;-64
2022/08/08 06:20:52;;;;;;;9.10;5.70;;;;;;;;;;5111389;27;21008;-64
2022/08/08 06:23:18;;;;;;;7.43;4.32;;;;;;;;;;5126495;28;20032;-63
2022/08/08 06:26:04;;;;;;;9.43;4.90;;;;;;;;;;5111390;27;20385;-64
2022/08/08 06:28:32;;;;;;;7.93;4.68;;;;;;;;;;5109489;28;20031;-63
2022/08/08 06:30:59;;;;;;;7.50;4.63;;;;;;;;;;5111087;28;20091;-63
2022/08/08 06:33:27;;;;;;;15.50;5.43;;;;;;;;;;5111069;28;20044;-63
2022/08/08 06:36:21;;;;;;;7.00;3.95;;;;;;;;;;5110830;27;20964;-65
2022/08/08 06:38:49;;;;;;;7.70;3.95;;;;;;;;;;5110421;28;20501;-63
2022/08/08 06:41:16;;;;;;;8.90;4.40;;;;;;;;;;5111005;28;20055;-64
2022/08/08 06:43:46;;;;;;;7.28;4.53;;;;;;;;;;5110479;28;20035;-64
2022/08/08 06:47:43;;;;;;;7.05;4.43;;;;;;;;;;5110968;27;20450;-63
2022/08/08 06:50:10;;;;;;;7.72;4.70;;;;;;;;;;5110763;28;20035;-63
2022/08/08 06:52:37;;;;;;;6.32;3.97;;;;;;;;;;5110990;28;20066;-63
2022/08/08 06:55:05;;;;;;;7.07;4.32;;;;;;;;;;5110789;28;20024;-64
2022/08/08 06:57:32;;;;;;;6.35;4.03;;;;;;;;;;5109168;28;20499;-63
2022/08/08 06:59:58;;;;;;;8.85;4.22;;;;;;;;;;5110724;28;20043;-63
2022/08/08 07:02:25;;;;;;;7.25;4.50;;;;;;;;;;5109623;28;20024;-63
2022/08/08 07:04:55;;;;;;;8.65;3.78;;;;;;;;;;5110342;28;20051;-63
2022/08/08 07:07:42;;;;;;;7.38;4.45;;;;;;;;;;5109379;28;20036;-63
2022/08/08 07:10:09;;;;;;;7.45;4.50;;;;;;;;;;5110922;28;20051;-63
2022/08/08 07:12:39;;;;;;;7.78;4.30;;;;;;;;;;5110265;28;20074;-63
2022/08/08 07:15:46;;;;;;;8.43;4.57;;;;;;;;;;5111127;27;20392;-62
2022/08/08 07:18:16;;;;;;;6.95;4.70;;;;;;;;;;5111027;28;20051;-63
2022/08/08 07:20:43;;;;;;;6.00;4.20;;;;;;;;;;5111209;28;20032;-63
2022/08/08 07:23:12;;;;;;;6.28;4.20;;;;;;;;;;5110909;28;20024;-62
2022/08/08 07:25:39;;;;;;;7.28;4.25;;;;;;;;;;5110351;28;20030;-64
2022/08/08 07:28:10;;;;;;;7.13;4.45;;;;;;;;;;5110822;28;20035;-63
2022/08/08 07:30:36;;;;;;;6.50;4.35;;;;;;;;;;5110868;28;20024;-64
2022/08/08 07:33:03;;;;;;;7.05;4.10;;;;;;;;;;5109127;28;20076;-62
2022/08/08 07:35:29;;;;;;;6.32;3.90;;;;;;;;;;5110593;28;20415;-62
2022/08/08 07:37:56;;;;;;;6.47;3.88;;;;;;;;;;5109298;28;20502;-62
2022/08/08 07:40:23;;;;;;;6.35;3.97;;;;;;;;;;5110045;28;20081;-62
2022/08/08 07:42:52;;;;;;;6.10;3.78;;;;;;;;;;5110229;28;20468;-63
2022/08/08 07:45:18;;;;;;;8.60;4.25;;;;;;;;;;5109254;28;20019;-64
2022/08/08 07:47:44;;;;;;;6.55;3.60;;;;;;;;;;5108546;28;20032;-62
2022/08/08 07:50:10;;;;;;;6.25;4.20;;;;;;;;;;5110348;28;20102;-63
2022/08/08 07:52:38;;;;;;;9.32;4.05;;;;;;;;;;5110020;28;20023;-62
2022/08/08 07:55:13;;;;;;;6.43;3.50;;;;;;;;;;5110235;28;20028;-63
2022/08/08 07:57:39;;;;;;;5.38;3.13;;;;;;;;;;5110293;28;20422;-63
2022/08/08 08:00:08;;;;;;;5.68;2.95;;;;;;;;;;5109977;28;20032;-64
2022/08/08 08:02:38;;;;;;;5.82;3.35;;;;;;;;;;5110359;28;20012;-63
2022/08/08 08:05:05;;;;;;;5.78;3.25;;;;;;;;;;5106056;28;20047;-61
2022/08/08 08:07:36;;;;;;;5.78;3.67;;;;;;;;;;5109512;28;20094;-62
2022/08/08 08:10:04;;;;;;;6.03;3.55;;;;;;;;;;5106757;28;20030;-62
2022/08/08 08:12:30;;;;;;;7.25;4.00;;;;;;;;;;5106185;28;20491;-62
2022/08/08 08:15:00;;;;;;;7.68;4.05;;;;;;;;;;5107494;28;20395;-62
2022/08/08 08:17:26;;;;;;;5.15;3.30;;;;;;;;;;5107988;28;20073;-62
2022/08/08 08:19:55;;;;;;;6.22;3.22;;;;;;;;;;5107904;28;20045;-62
2022/08/08 08:22:21;;;;;;;6.13;3.75;;;;;;;;;;5109466;28;20395;-62
2022/08/08 08:24:48;;;;;;;6.00;3.13;;;;;;;;;;5107433;28;20016;-62
2022/08/08 08:27:15;;;;;;;6.03;3.00;;;;;;;;;;5092332;28;20520;-62
2022/08/08 08:29:43;;;;;;;5.97;2.75;;;;;;;;;;5094200;28;20476;-63
2022/08/08 08:32:09;;;;;;;4.82;2.60;;;;;;;;;;5093077;28;20070;-63
2022/08/08 08:46:02;;;;;;;4.97;2.63;;;;;;;;;;5088737;27;20903;-63
2022/08/08 08:48:29;;;;;;;4.38;2.47;;;;;;;;;;5090712;28;20474;-64
2022/08/08 08:50:55;;;;;;;5.50;2.47;;;;;;;;;;5088117;28;20052;-63
2022/08/08 08:53:22;;;;;;;7.38;2.75;;;;;;;;;;5089117;28;20024;-63
2022/08/08 08:55:49;;;;;;;5.80;2.63;;;;;;;;;;5088367;28;20447;-63
2022/08/08 08:58:31;;;;;;;6.47;2.88;;;;;;;;;;5088624;28;20024;-64
2022/08/08 09:00:59;;;;;;;4.88;2.88;;;;;;;;;;5090616;28;20024;-64
2022/08/08 09:03:26;;;;;;;5.35;2.85;;;;;;;;;;5089095;28;20446;-63
2022/08/08 09:05:53;;;;;;;4.30;2.38;;;;;;;;;;5089862;28;20377;-63
2022/08/08 09:08:21;;;;;;;7.25;2.50;;;;;;;;;;5087939;28;20043;-63
2022/08/08 09:10:48;;;;;;;3.70;2.10;;;;;;;;;;5089333;28;20032;-64
2022/08/08 09:13:15;;;;;;;3.47;2.00;;;;;;;;;;5089636;28;20405;-63
2022/08/08 09:15:42;;;;;;;5.30;2.50;;;;;;;;;;5088539;28;20036;-63
2022/08/08 09:18:08;;;;;;;3.80;2.10;;;;;;;;;;5088234;28;20012;-64
2022/08/08 09:20:36;;;;;;;3.45;1.95;;;;;;;;;;5088232;28;20071;-63
2022/08/08 09:23:02;;;;;;;3.50;2.00;;;;;;;;;;5088718;28;20024;-63
2022/08/08 09:25:28;;;;;;;4.05;2.50;;;;;;;;;;5089327;28;20028;-63
2022/08/08 09:27:57;;;;;;;3.28;1.85;;;;;;;;;;5089369;28;20501;-63
2022/08/08 09:30:24;;;;;;;5.90;2.33;;;;;;;;;;5089429;28;20086;-63
2022/08/08 09:32:52;;;;;;;3.35;2.10;;;;;;;;;;5089250;28;20360;-63
2022/08/08 09:35:19;;;;;;;5.60;1.90;;;;;;;;;;5089592;28;20035;-62
2022/08/08 09:37:49;;;;;;;2.67;1.30;;;;;;;;;;5089596;28;20497;-63
2022/08/08 09:40:16;;;;;;;2.05;1.40;;;;;;;;;;5087278;28;20622;-63
2022/08/08 09:42:44;;;;;;;3.28;1.10;;;;;;;;;;5084829;28;20039;-63
2022/08/08 09:45:10;;;;;;;2.85;1.50;;;;;;;;;;5083759;28;20048;-63
2022/08/08 09:47:40;;;;;;;2.90;1.20;;;;;;;;;;5075055;28;20377;-63
2022/08/08 09:50:12;;;;;;;2.55;1.13;;;;;;;;;;5075687;28;20032;-63
2022/08/08 09:52:40;;;;;;;3.50;1.25;;;;;;;;;;5075403;28;20021;-63
2022/08/08 09:55:06;;;;;;;2.35;1.20;;;;;;;;;;5074408;28;20064;-64
2022/08/08 09:57:32;;;;;;;5.70;1.60;;;;;;;;;;5075677;28;20037;-63
2022/08/08 10:00:01;;;;;;;2.15;1.20;;;;;;;;;;5075363;28;20078;-63
2022/08/08 10:02:38;;;;;;;4.82;1.48;;;;;;;;;;5074411;28;20016;-63
2022/08/08 10:05:05;;;;;;;4.07;1.63;;;;;;;;;;5075475;28;20031;-64
2022/08/08 10:07:31;;;;;;;4.05;1.25;;;;;;;;;;5074932;28;20024;-63
2022/08/08 10:09:58;;;;;;;3.47;1.50;;;;;;;;;;5075674;28;20033;-63
2022/08/08 10:12:31;;;;;;;5.28;1.20;;;;;;;;;;5075474;28;20523;-63
2022/08/08 10:15:01;;;;;;;1.95;1.00;;;;;;;;;;5075016;28;20036;-63
2022/08/08 10:17:27;;;;;;;3.40;1.45;;;;;;;;;;5074913;28;20021;-64
2022/08/08 10:19:57;;;;;;;2.00;1.23;;;;;;;;;;5075183;28;20028;-64
2022/08/08 10:22:23;;;;;;;1.60;1.10;;;;;;;;;;5074088;28;20103;-63
2022/08/08 10:24:54;;;;;;;1.88;1.10;;;;;;;;;;5072518;28;20504;-63
2022/08/08 10:27:24;;;;;;;1.88;1.00;;;;;;;;;;5071414;28;20071;-63
2022/08/08 10:30:00;;;;;;;2.35;1.40;;;;;;;;;;5075002;28;20097;-63
2022/08/08 10:32:40;;;;;;;4.93;1.30;;;;;;;;;;5075260;28;20542;-63
2022/08/08 10:35:14;;;;;;;2.17;1.35;;;;;;;;;;5074736;28;20490;-64
2022/08/08 10:37:51;;;;;;;2.83;1.20;;;;;;;;;;5075024;28;20029;-63
2022/08/08 10:40:17;;;;;;;3.05;1.33;;;;;;;;;;5075072;28;20466;-63
2022/08/08 10:42:44;;;;;;;2.03;1.20;;;;;;;;;;5073268;28;20028;-63
2022/08/08 10:45:10;;;;;;;2.40;1.30;;;;;;;;;;5073453;28;20047;-64
2022/08/08 10:47:38;;;;;;;2.22;1.33;;;;;;;;;;5074723;28;20118;-63
2022/08/08 10:50:06;;;;;;;1.92;1.13;;;;;;;;;;5074367;28;20024;-63
2022/08/08 10:52:33;;;;;;;2.10;1.50;;;;;;;;;;5074892;28;20036;-63
2022/08/08 10:55:12;;;;;;;3.28;1.30;;;;;;;;;;5075074;28;20113;-63
2022/08/08 10:57:59;;;;;;;2.10;1.30;;;;;;;;;;5073512;28;20028;-64
2022/08/08 11:00:26;;;;;;;5.63;1.30;;;;;;;;;;5074732;28;20040;-63
2022/08/08 11:02:55;;;;;;;3.30;1.48;;;;;;;;;;5072962;28;20483;-64
2022/08/08 11:05:22;;;;;;;2.13;1.25;;;;;;;;;;5073354;28;20102;-64
2022/08/08 11:07:49;;;;;;;2.15;1.20;;;;;;;;;;5074625;28;20070;-64
2022/08/08 11:10:16;;;;;;;3.20;1.20;;;;;;;;;;5072835;28;20027;-64
2022/08/08 11:12:46;;;;;;;2.88;1.40;;;;;;;;;;5073204;28;20498;-64
2022/08/08 11:15:16;;;;;;;2.17;1.35;;;;;;;;;;5073051;28;20105;-64
2022/08/08 11:17:43;;;;;;;4.03;1.27;;;;;;;;;;5073998;28;20081;-64
2022/08/08 11:20:10;;;;;;;2.92;1.48;;;;;;;;;;5074284;28;20029;-64
2022/08/08 11:22:37;;;;;;;3.50;1.52;;;;;;;;;;5074504;28;20044;-64
2022/08/08 11:25:05;;;;;;;2.22;1.00;;;;;;;;;;5073806;28;20033;-64
2022/08/08 11:27:34;;;;;;;3.47;1.30;;;;;;;;;;5074110;28;20038;-64
2022/08/08 11:30:01;;;;;;;2.38;1.35;;;;;;;;;;5074136;28;20067;-63
2022/08/08 11:32:32;;;;;;;4.97;1.40;;;;;;;;;;5072414;28;20028;-63
2022/08/08 11:35:03;;;;;;;2.37;1.40;;;;;;;;;;5074450;28;20024;-64
2022/08/08 11:37:30;;;;;;;1.15;0.93;;;;;;;;;;5072814;28;20257;-63
2022/08/08 11:39:57;;;;;;;3.55;1.50;;;;;;;;;;5073657;28;20173;-63
2022/08/08 11:42:24;;;;;;;4.93;1.48;;;;;;;;;;5073941;28;20044;-63
2022/08/08 11:44:51;;;;;;;2.72;1.65;;;;;;;;;;5073535;28;20040;-64
2022/08/08 11:47:18;;;;;;;3.10;1.83;;;;;;;;;;5073787;28;20048;-63
2022/08/08 11:49:46;;;;;;;3.85;1.70;;;;;;;;;;5074033;28;20043;-63
2022/08/08 11:52:13;;;;;;;4.32;1.58;;;;;;;;;;5072000;28;20029;-63
2022/08/08 11:54:42;;;;;;;2.22;1.30;;;;;;;;;;5073592;28;20033;-63
2022/08/08 11:57:10;;;;;;;1.92;1.10;;;;;;;;;;5073667;28;20482;-63
2022/08/08 11:59:41;;;;;;;3.25;1.30;;;;;;;;;;5071997;28;20032;-63
2022/08/08 12:02:08;;;;;;;1.90;1.50;;;;;;;;;;5073951;28;20395;-63
2022/08/08 12:04:36;;;;;;;5.45;1.40;;;;;;;;;;5073798;28;20028;-63
2022/08/08 12:07:06;;;;;;;1.92;1.30;;;;;;;;;;5073211;28;20021;-63
2022/08/08 12:09:33;;;;;;;2.83;1.45;;;;;;;;;;5073299;28;20032;-62
2022/08/08 12:11:59;;;;;;;2.90;1.40;;;;;;;;;;5073552;28;20024;-63
2022/08/08 12:14:26;;;;;;;6.20;1.80;;;;;;;;;;5073009;28;20060;-63
2022/08/08 12:16:52;;;;;;;2.33;1.35;;;;;;;;;;5073432;28;20032;-62
2022/08/08 12:19:19;;;;;;;3.95;1.55;;;;;;;;;;5073534;28;20103;-63
2022/08/08 12:21:46;;;;;;;3.17;1.50;;;;;;;;;;5073045;28;20055;-63
2022/08/08 12:24:18;;;;;;;3.60;1.65;;;;;;;;;;5072078;28;20060;-65
2022/08/08 12:26:47;;;;;;;3.45;1.42;;;;;;;;;;5073307;28;20047;-62
2022/08/08 12:29:21;;;;;;;2.67;1.55;;;;;;;;;;5072918;28;20051;-62
2022/08/08 12:32:00;;;;;;;2.58;1.40;;;;;;;;;;5073322;28;20043;-65
2022/08/08 12:34:52;;;;;;;2.33;1.50;;;;;;;;;;5072658;28;20424;-63
2022/08/08 12:37:24;;;;;;;3.50;1.63;;;;;;;;;;5072148;28;20442;-63
2022/08/08 12:39:51;;;;;;;2.38;1.40;;;;;;;;;;5073285;28;20017;-65
2022/08/08 12:42:17;;;;;;;3.40;1.45;;;;;;;;;;5072759;28;20036;-63
2022/08/08 12:44:44;;;;;;;2.72;1.45;;;;;;;;;;5073093;28;20040;-63
2022/08/08 12:47:11;;;;;;;3.13;1.23;;;;;;;;;;5073182;28;20027;-63
2022/08/08 12:49:38;;;;;;;2.58;1.30;;;;;;;;;;5071402;28;20024;-63
2022/08/08 12:52:04;;;;;;;2.50;1.10;;;;;;;;;;5071854;28;20031;-63
2022/08/08 12:54:35;;;;;;;2.85;1.48;;;;;;;;;;5073047;28;20032;-63
2022/08/08 12:57:14;;;;;;;1.97;1.30;;;;;;;;;;5072707;28;20023;-63
2022/08/08 12:59:50;;;;;;;2.58;1.50;;;;;;;;;;5073244;28;20410;-63
2022/08/08 13:02:25;;;;;;;1.88;1.15;;;;;;;;;;5072613;28;20075;-63
2022/08/08 13:04:52;;;;;;;1.52;1.15;;;;;;;;;;5073247;28;20028;-63
2022/08/08 13:07:18;;;;;;;3.05;1.10;;;;;;;;;;5073202;28;20103;-63
2022/08/08 13:09:57;;;;;;;1.48;1.05;;;;;;;;;;5072524;28;20029;-63
2022/08/08 13:12:36;;;;;;;2.30;1.20;;;;;;;;;;5072967;28;20429;-64
2022/08/08 13:15:05;;;;;;;1.83;1.10;;;;;;;;;;5072880;28;20571;-63
2022/08/08 13:17:32;;;;;;;1.85;1.30;;;;;;;;;;5072604;28;20017;-63
2022/08/08 13:19:58;;;;;;;4.50;1.50;;;;;;;;;;5072878;28;20048;-63
2022/08/08 13:22:24;;;;;;;2.35;1.30;;;;;;;;;;5076597;28;20099;-63
2022/08/08 13:24:51;;;;;;;2.65;1.40;;;;;;;;;;5076201;28;20032;-64
2022/08/08 13:27:18;;;;;;;2.83;1.25;;;;;;;;;;5076482;28;20066;-64
2022/08/08 13:29:52;;;;;;;3.05;1.02;;;;;;;;;;5076456;28;20028;-64
2022/08/08 13:32:19;;;;;;;3.22;1.33;;;;;;;;;;5075909;28;20473;-63
2022/08/08 13:34:48;;;;;;;2.35;1.17;;;;;;;;;;5076300;28;20065;-64
2022/08/08 13:37:15;;;;;;;3.08;1.35;;;;;;;;;;5076588;28;20031;-63
2022/08/08 13:39:41;;;;;;;2.30;1.30;;;;;;;;;;5074558;28;20036;-63
2022/08/08 13:42:08;;;;;;;3.13;1.20;;;;;;;;;;5076213;28;20498;-63
2022/08/08 13:44:34;;;;;;;3.33;1.27;;;;;;;;;;5075595;28;20056;-63
2022/08/08 13:47:01;;;;;;;1.45;1.00;;;;;;;;;;5076130;28;20020;-63
2022/08/08 13:49:30;;;;;;;3.13;1.23;;;;;;;;;;5074785;28;20505;-63
2022/08/08 13:51:56;;;;;;;2.20;1.23;;;;;;;;;;5075599;28;20467;-63
2022/08/08 13:54:23;;;;;;;1.63;1.40;;;;;;;;;;5075967;28;20502;-63
2022/08/08 13:57:09;;;;;;;2.63;1.38;;;;;;;;;;5075983;28;20381;-63
2022/08/08 13:59:37;;;;;;;1.65;0.90;;;;;;;;;;5075476;28;20474;-64
2022/08/08 14:02:04;;;;;;;2.38;1.10;;;;;;;;;;5075694;28;20021;-64
2022/08/08 14:04:32;;;;;;;2.15;1.10;;;;;;;;;;5074578;28;20441;-64
2022/08/08 14:07:00;;;;;;;1.60;1.00;;;;;;;;;;5075397;28;20024;-63
2022/08/08 14:09:39;;;;;;;1.60;1.17;;;;;;;;;;5075662;28;20430;-63
2022/08/08 14:12:05;;;;;;;3.53;1.20;;;;;;;;;;5075817;28;20016;-63
2022/08/08 14:14:38;;;;;;;2.22;1.00;;;;;;;;;;5075193;28;20074;-63
2022/08/08 14:17:05;;;;;;;1.50;1.00;;;;;;;;;;5074302;28;20078;-63
2022/08/08 14:19:34;;;;;;;2.42;1.52;;;;;;;;;;5075964;28;20031;-62
2022/08/08 14:22:00;;;;;;;2.70;0.98;;;;;;;;;;5075489;28;20440;-63
2022/08/08 14:24:30;;;;;;;3.45;1.33;;;;;;;;;;5075437;28;20489;-63
2022/08/08 14:26:56;;;;;;;1.38;1.00;;;;;;;;;;5074990;28;20036;-63
2022/08/08 14:29:22;;;;;;;6.70;1.40;;;;;;;;;;5075390;28;20025;-63
2022/08/08 14:31:51;;;;;;;4.28;1.33;;;;;;;;;;5073921;28;20029;-63
2022/08/08 14:34:17;;;;;;;1.42;0.85;;;;;;;;;;5073543;28;20062;-63
2022/08/08 14:36:43;;;;;;;5.68;1.27;;;;;;;;;;5073866;28;20090;-64
2022/08/08 14:39:10;;;;;;;2.08;0.90;;;;;;;;;;5073931;28;20173;-64
2022/08/08 14:41:43;;;;;;;1.50;1.02;;;;;;;;;;5073476;28;20387;-63
2022/08/08 14:44:10;;;;;;;3.53;1.10;;;;;;;;;;5074874;28;20055;-64
2022/08/08 14:46:36;;;;;;;2.25;1.15;;;;;;;;;;5075112;28;20021;-64
2022/08/08 14:49:08;;;;;;;2.88;1.42;;;;;;;;;;5074555;28;20503;-64
2022/08/08 14:51:42;;;;;;;2.22;1.20;;;;;;;;;;5075074;28;20028;-64
2022/08/08 14:54:08;;;;;;;1.13;0.82;;;;;;;;;;5074873;28;20020;-64
2022/08/08 14:56:36;;;;;;;1.58;0.90;;;;;;;;;;5074414;28;20078;-64
2022/08/08 14:59:03;;;;;;;2.30;1.20;;;;;;;;;;5074792;28;20016;-64
2022/08/08 15:01:34;;;;;;;1.60;1.20;;;;;;;;;;5074814;28;20107;-65
2022/08/08 15:04:01;;;;;;;3.15;1.48;;;;;;;;;;5073096;28;20043;-64
2022/08/08 15:06:27;;;;;;;3.00;1.10;;;;;;;;;;5074700;28;20375;-63
2022/08/08 15:08:53;;;;;;;3.15;1.30;;;;;;;;;;5072800;28;20483;-63
2022/08/08 15:11:19;;;;;;;1.88;1.17;;;;;;;;;;5074805;28;20078;-64
2022/08/08 15:13:46;;;;;;;1.48;0.93;;;;;;;;;;5074410;28;20033;-64
2022/08/08 15:16:13;;;;;;;2.70;1.23;;;;;;;;;;5074012;28;20032;-65
2022/08/08 15:18:39;;;;;;;1.33;0.95;;;;;;;;;;5074375;28;20509;-62
2022/08/08 15:21:07;;;;;;;1.75;0.85;;;;;;;;;;5074329;28;20032;-64
2022/08/08 15:23:33;;;;;;;3.22;1.05;;;;;;;;;;5073876;28;20021;-64
2022/08/08 15:25:59;;;;;;;1.08;0.80;;;;;;;;;;5072974;28;20021;-64
2022/08/08 15:28:25;;;;;;;2.05;1.30;;;;;;;;;;5074171;28;20032;-64
2022/08/08 15:30:51;;;;;;;2.30;0.93;;;;;;;;;;5073730;28;20017;-66
2022/08/08 15:33:18;;;;;;;2.60;1.00;;;;;;;;;;5074664;28;20028;-64
2022/08/08 15:35:44;;;;;;;2.35;1.17;;;;;;;;;;5073956;28;20474;-63
2022/08/08 15:38:10;;;;;;;1.35;1.00;;;;;;;;;;5073674;28;20027;-65
2022/08/08 15:40:36;;;;;;;3.08;1.50;;;;;;;;;;5074201;28;20103;-64
2022/08/08 15:43:03;;;;;;;2.13;1.00;;;;;;;;;;5073483;28;20090;-63
2022/08/08 15:45:29;;;;;;;3.33;1.25;;;;;;;;;;5072018;28;20067;-65
2022/08/08 15:47:55;;;;;;;2.30;1.13;;;;;;;;;;5074019;28;20097;-65
2022/08/08 15:50:21;;;;;;;4.10;1.20;;;;;;;;;;5073868;28;20020;-66
2022/08/08 15:52:51;;;;;;;3.25;1.30;;;;;;;;;;5073434;28;20031;-64
2022/08/08 15:55:17;;;;;;;1.63;1.20;;;;;;;;;;5073986;28;20425;-64
2022/08/08 15:57:43;;;;;;;2.58;1.40;;;;;;;;;;5073746;28;20417;-64
2022/08/08 16:00:11;;;;;;;1.75;1.20;;;;;;;;;;5073284;28;20490;-62
2022/08/08 16:02:37;;;;;;;3.55;1.35;;;;;;;;;;5073831;28;20025;-64
2022/08/08 16:05:03;;;;;;;1.83;1.20;;;;;;;;;;5073489;28;20028;-63
2022/08/08 16:07:30;;;;;;;4.40;1.65;;;;;;;;;;5073642;28;20024;-63
2022/08/08 16:09:56;;;;;;;3.58;1.55;;;;;;;;;;5072297;28;20028;-63
2022/08/08 16:12:22;;;;;;;3.13;1.48;;;;;;;;;;5073295;28;20478;-63
2022/08/08 16:14:48;;;;;;;3.45;1.42;;;;;;;;;;5072141;28;20032;-63
2022/08/08 16:17:15;;;;;;;1.45;1.15;;;;;;;;;;5073441;28;20020;-63
2022/08/08 16:19:41;;;;;;;2.28;1.45;;;;;;;;;;5073347;28;20027;-63
2022/08/08 16:22:07;;;;;;;2.95;1.67;;;;;;;;;;5073392;28;20048;-62
2022/08/08 16:24:33;;;;;;;2.20;1.33;;;;;;;;;;5073383;28;20408;-63